createdAt,value
2022-11-07T00:00:15.286Z,20.98
2022-11-07T00:00:37.425Z,19.98
2022-11-07T00:00:59.842Z,19.73
2022-11-07T00:01:24.329Z,20.25
2022-11-07T00:01:48.121Z,20.70
2022-11-07T00:02:10.795Z,21.27
2022-11-07T00:02:34.709Z,20.60
2022-11-07T00:02:56.884Z,19.73
2022-11-07T00:03:18.956Z,20.85
2022-11-07T00:03:41.400Z,19.90
2022-11-07T00:04:04.085Z,19.20
2022-11-07T00:04:29.506Z,19.65
2022-11-07T00:04:51.693Z,20.05
2022-11-07T00:05:13.875Z,20.40
2022-11-07T00:05:40.243Z,20.13
2022-11-07T00:06:02.874Z,21.23
2022-11-07T00:06:24.740Z,19.80
2022-11-07T00:06:47.741Z,20.63
2022-11-07T00:07:09.991Z,20.13
2022-11-07T00:07:31.772Z,20.17
2022-11-07T00:07:53.568Z,20.58
2022-11-07T00:08:15.300Z,20.90
2022-11-07T00:08:37.169Z,20.52
2022-11-07T00:08:59.595Z,19.85
2022-11-07T00:09:21.744Z,20.27
2022-11-07T00:09:44.073Z,20.80
2022-11-07T00:10:06.806Z,20.92
2022-11-07T00:10:29.089Z,20.23
2022-11-07T00:10:54.713Z,20.80
2022-11-07T00:11:16.956Z,20.75
2022-11-07T00:11:38.701Z,19.65
2022-11-07T00:12:01.500Z,19.48
2022-11-07T00:12:23.451Z,19.85
2022-11-07T00:12:45.245Z,20.20
2022-11-07T00:13:06.997Z,21.35
2022-11-07T00:13:29.658Z,21.52
2022-11-07T00:13:51.941Z,20.25
2022-11-07T00:14:14.572Z,20.10
2022-11-07T00:14:36.726Z,19.75
2022-11-07T00:14:58.844Z,19.80
2022-11-07T00:15:20.631Z,19.33
2022-11-07T00:15:42.793Z,18.80
2022-11-07T00:16:06.767Z,19.17
2022-11-07T00:16:29.379Z,20.00
2022-11-07T00:16:51.445Z,19.98
2022-11-07T00:17:13.634Z,19.63
2022-11-07T00:17:35.359Z,19.52
2022-11-07T00:17:58.790Z,20.58
2022-11-07T00:18:21.382Z,21.13
2022-11-07T00:18:43.165Z,19.83
2022-11-07T00:19:05.165Z,20.15
2022-11-07T00:19:27.350Z,20.63
2022-11-07T00:19:49.293Z,19.65
2022-11-07T00:20:11.474Z,19.80
2022-11-07T00:20:33.303Z,20.27
2022-11-07T00:20:55.063Z,20.13
2022-11-07T00:21:16.840Z,20.02
2022-11-07T00:21:39.591Z,20.33
2022-11-07T00:22:01.430Z,20.80
2022-11-07T00:22:24.475Z,22.05
2022-11-07T00:22:46.236Z,20.70
2022-11-07T00:23:08.244Z,20.20
2022-11-07T00:23:30.670Z,20.17
2022-11-07T00:23:52.462Z,22.02
2022-11-07T00:24:17.456Z,23.00
2022-11-07T00:24:39.271Z,21.88
2022-11-07T00:25:01.484Z,21.05
2022-11-07T00:25:23.394Z,21.00
2022-11-07T00:25:45.948Z,22.88
2022-11-07T00:26:10.934Z,21.55
2022-11-07T00:26:32.781Z,21.73
2022-11-07T00:26:54.685Z,21.73
2022-11-07T00:27:16.555Z,21.23
2022-11-07T00:27:38.869Z,21.15
2022-11-07T00:28:01.081Z,21.48
2022-11-07T00:28:22.900Z,21.80
2022-11-07T00:28:45.045Z,22.00
2022-11-07T00:29:07.174Z,21.90
2022-11-07T00:29:29.017Z,21.60
2022-11-07T00:29:50.823Z,21.33
2022-11-07T00:30:13.237Z,21.20
2022-11-07T00:30:35.041Z,21.85
2022-11-07T00:30:59.334Z,20.42
2022-11-07T00:31:21.099Z,22.38
2022-11-07T00:31:43.396Z,21.48
2022-11-07T00:32:05.554Z,21.02
2022-11-07T00:32:27.395Z,20.58
2022-11-07T00:32:49.230Z,19.95
2022-11-07T00:33:11.112Z,20.92
2022-11-07T00:33:33.586Z,21.85
2022-11-07T00:33:55.578Z,20.65
2022-11-07T00:34:17.445Z,21.10
2022-11-07T00:34:39.819Z,20.77
2022-11-07T00:35:01.833Z,20.42
2022-11-07T00:35:23.763Z,20.48
2022-11-07T00:35:45.547Z,20.92
2022-11-07T00:36:11.053Z,21.08
2022-11-07T00:36:32.975Z,20.42
2022-11-07T00:36:54.713Z,21.58
2022-11-07T00:37:16.567Z,20.57
2022-11-07T00:37:38.827Z,20.92
2022-11-07T00:38:00.775Z,20.48
2022-11-07T00:38:22.665Z,20.83
2022-11-07T00:38:44.546Z,20.70
2022-11-07T00:39:06.791Z,20.40
2022-11-07T00:39:28.896Z,19.85
2022-11-07T00:39:50.797Z,20.00
2022-11-07T00:40:12.769Z,20.63
2022-11-07T00:40:35.221Z,20.00
2022-11-07T00:41:06.128Z,20.10
2022-11-07T00:41:31.107Z,19.65
2022-11-07T00:41:52.864Z,20.27
2022-11-07T00:42:14.671Z,19.92
2022-11-07T00:42:36.437Z,19.33
2022-11-07T00:42:58.736Z,20.25
2022-11-07T00:43:20.484Z,20.25
2022-11-07T00:43:42.333Z,20.25
2022-11-07T00:44:04.233Z,19.80
2022-11-07T00:44:25.996Z,19.70
2022-11-07T00:44:47.763Z,19.80
2022-11-07T00:45:11.795Z,19.02
2022-11-07T00:45:33.937Z,19.17
2022-11-07T00:45:56.086Z,19.15
2022-11-07T00:46:19.226Z,19.38
2022-11-07T00:46:41.054Z,19.63
2022-11-07T00:47:06.354Z,20.52
2022-11-07T00:47:28.475Z,19.60
2022-11-07T00:47:52.083Z,18.98
2022-11-07T00:48:13.807Z,19.58
2022-11-07T00:48:36.859Z,18.83
2022-11-07T00:48:59.086Z,19.20
2022-11-07T00:49:21.477Z,19.73
2022-11-07T00:49:43.636Z,20.73
2022-11-07T00:50:06.052Z,18.95
2022-11-07T00:50:30.389Z,20.92
2022-11-07T00:50:52.177Z,20.63
2022-11-07T00:51:15.263Z,20.15
2022-11-07T00:51:37.152Z,18.33
2022-11-07T00:51:58.916Z,19.05
2022-11-07T00:52:20.719Z,20.10
2022-11-07T00:52:42.873Z,19.85
2022-11-07T00:53:04.977Z,19.75
2022-11-07T00:53:26.733Z,19.42
2022-11-07T00:53:49.181Z,19.77
2022-11-07T00:54:10.980Z,20.65
2022-11-07T00:54:33.296Z,19.40
2022-11-07T00:54:55.453Z,18.85
2022-11-07T00:55:17.312Z,19.23
2022-11-07T00:55:39.168Z,19.38
2022-11-07T00:56:02.512Z,19.38
2022-11-07T00:56:25.887Z,19.33
2022-11-07T00:56:48.040Z,18.75
2022-11-07T00:57:10.205Z,18.58
2022-11-07T00:57:31.934Z,19.05
2022-11-07T00:57:53.699Z,19.02
2022-11-07T00:58:17.157Z,19.17
2022-11-07T00:58:39.348Z,19.52
2022-11-07T00:59:01.237Z,20.60
2022-11-07T00:59:23.423Z,19.77
2022-11-07T00:59:45.725Z,19.20
2022-11-07T01:00:08.269Z,18.95
2022-11-07T01:00:30.170Z,17.70
2022-11-07T01:00:51.940Z,17.85
2022-11-07T01:01:21.383Z,19.33
2022-11-07T01:01:43.775Z,18.48
2022-11-07T01:02:05.765Z,18.95
2022-11-07T01:02:27.697Z,19.10
2022-11-07T01:03:09.951Z,18.95
2022-11-07T01:03:50.504Z,18.38
2022-11-07T01:04:32.236Z,18.55
2022-11-07T01:05:12.264Z,18.23
2022-11-07T01:05:34.376Z,17.98
2022-11-07T01:06:01.427Z,18.80
2022-11-07T01:06:23.799Z,19.08
2022-11-07T01:06:46.356Z,19.25
2022-11-07T01:07:08.118Z,19.30
2022-11-07T01:07:29.865Z,19.48
2022-11-07T01:07:52.974Z,18.08
2022-11-07T01:08:14.733Z,17.00
2022-11-07T01:08:36.787Z,17.75
2022-11-07T01:08:59.491Z,18.60
2022-11-07T01:09:22.250Z,19.27
2022-11-07T01:09:44.061Z,18.63
2022-11-07T01:10:07.023Z,18.75
2022-11-07T01:10:29.279Z,19.35
2022-11-07T01:10:51.055Z,19.17
2022-11-07T01:11:12.848Z,19.25
2022-11-07T01:11:36.420Z,19.55
2022-11-07T01:11:58.835Z,19.35
2022-11-07T01:12:21.177Z,18.50
2022-11-07T01:12:44.085Z,18.45
2022-11-07T01:13:06.664Z,18.38
2022-11-07T01:13:28.449Z,18.60
2022-11-07T01:13:50.530Z,19.02
2022-11-07T01:14:13.801Z,18.83
2022-11-07T01:14:36.096Z,18.58
2022-11-07T01:14:57.904Z,17.83
2022-11-07T01:15:19.676Z,18.70
2022-11-07T01:15:44.139Z,19.23
2022-11-07T01:16:06.989Z,18.98
2022-11-07T01:16:30.626Z,19.25
2022-11-07T01:16:53.339Z,18.50
2022-11-07T01:17:15.068Z,19.25
2022-11-07T01:17:36.858Z,19.73
2022-11-07T01:17:58.613Z,19.02
2022-11-07T01:18:22.782Z,18.92
2022-11-07T01:18:44.524Z,18.85
2022-11-07T01:19:07.557Z,19.13
2022-11-07T01:19:29.500Z,18.50
2022-11-07T01:19:51.249Z,19.02
2022-11-07T01:20:13.508Z,19.15
2022-11-07T01:20:35.842Z,18.73
2022-11-07T01:20:57.631Z,19.55
2022-11-07T01:21:19.700Z,18.67
2022-11-07T01:21:42.604Z,19.60
2022-11-07T01:22:04.408Z,18.90
2022-11-07T01:22:26.169Z,18.40
2022-11-07T01:22:47.927Z,18.85
2022-11-07T01:23:10.131Z,18.95
2022-11-07T01:23:31.981Z,19.35
2022-11-07T01:23:53.815Z,18.65
2022-11-07T01:24:16.492Z,17.83
2022-11-07T01:24:38.851Z,17.67
2022-11-07T01:25:00.577Z,19.15
2022-11-07T01:25:22.371Z,18.20
2022-11-07T01:25:44.093Z,18.77
2022-11-07T01:26:07.978Z,18.42
2022-11-07T01:26:30.063Z,18.35
2022-11-07T01:26:51.977Z,19.45
2022-11-07T01:27:13.800Z,18.20
2022-11-07T01:27:35.524Z,17.88
2022-11-07T01:27:57.707Z,18.08
2022-11-07T01:28:19.476Z,18.23
2022-11-07T01:28:41.911Z,18.95
2022-11-07T01:29:04.924Z,17.23
2022-11-07T01:29:26.957Z,18.23
2022-11-07T01:29:49.075Z,17.73
2022-11-07T01:30:11.356Z,18.40
2022-11-07T01:30:33.179Z,18.13
2022-11-07T01:30:54.890Z,17.88
2022-11-07T01:31:17.411Z,18.58
2022-11-07T01:31:39.196Z,18.92
2022-11-07T01:32:01.037Z,18.65
2022-11-07T01:32:22.856Z,19.23
2022-11-07T01:32:44.654Z,18.92
2022-11-07T01:33:06.842Z,18.02
2022-11-07T01:33:28.611Z,17.67
2022-11-07T01:33:50.765Z,17.85
2022-11-07T01:34:13.156Z,16.98
2022-11-07T01:34:34.953Z,17.75
2022-11-07T01:34:56.689Z,18.42
2022-11-07T01:35:18.477Z,16.80
2022-11-07T01:35:40.639Z,17.30
2022-11-07T01:36:21.011Z,18.08
2022-11-07T01:36:42.882Z,17.67
2022-11-07T01:37:04.657Z,17.33
2022-11-07T01:37:26.453Z,16.80
2022-11-07T01:37:48.175Z,17.42
2022-11-07T01:38:10.127Z,17.70
2022-11-07T01:38:31.965Z,17.25
2022-11-07T01:38:53.724Z,17.23
2022-11-07T01:39:15.496Z,18.88
2022-11-07T01:39:37.431Z,18.13
2022-11-07T01:40:00.694Z,18.48
2022-11-07T01:40:22.477Z,17.73
2022-11-07T01:41:03.269Z,17.38
2022-11-07T01:41:29.996Z,18.10
2022-11-07T01:41:51.748Z,18.25
2022-11-07T01:42:13.622Z,18.13
2022-11-07T01:42:35.432Z,17.80
2022-11-07T01:42:57.177Z,17.88
2022-11-07T01:43:18.900Z,18.10
2022-11-07T01:43:56.784Z,16.88
2022-11-07T01:44:19.215Z,17.80
2022-11-07T01:44:41.006Z,18.40
2022-11-07T01:45:02.878Z,18.98
2022-11-07T01:45:30.879Z,17.92
2022-11-07T01:45:53.040Z,17.60
2022-11-07T01:46:15.687Z,17.67
2022-11-07T01:46:38.973Z,17.83
2022-11-07T01:47:01.386Z,18.58
2022-11-07T01:47:26.814Z,17.88
2022-11-07T01:47:49.962Z,16.90
2022-11-07T01:48:11.800Z,17.23
2022-11-07T01:48:33.762Z,18.08
2022-11-07T01:49:01.723Z,18.00
2022-11-07T01:49:29.726Z,18.13
2022-11-07T01:49:53.130Z,17.85
2022-11-07T01:50:15.400Z,18.08
2022-11-07T01:50:37.189Z,18.52
2022-11-07T01:50:59.536Z,18.30
2022-11-07T01:51:25.189Z,18.10
2022-11-07T01:51:58.709Z,17.60
2022-11-07T01:52:34.984Z,17.70
2022-11-07T01:52:57.739Z,18.75
2022-11-07T01:53:19.908Z,19.30
2022-11-07T01:53:42.553Z,18.88
2022-11-07T01:54:05.109Z,19.05
2022-11-07T01:54:50.368Z,18.27
2022-11-07T01:55:12.467Z,17.50
2022-11-07T01:55:36.022Z,17.52
2022-11-07T01:55:57.934Z,18.25
2022-11-07T01:56:24.138Z,18.35
2022-11-07T01:56:46.310Z,17.73
2022-11-07T01:57:15.211Z,17.17
2022-11-07T01:58:09.789Z,18.17
2022-11-07T01:58:31.607Z,18.05
2022-11-07T01:58:56.147Z,17.83
2022-11-07T01:59:20.885Z,17.35
2022-11-07T01:59:42.907Z,18.20
2022-11-07T02:00:07.302Z,17.48
2022-11-07T02:00:31.375Z,16.98
2022-11-07T02:00:53.607Z,17.92
2022-11-07T02:01:16.883Z,17.48
2022-11-07T02:01:38.974Z,17.00
2022-11-07T02:02:01.484Z,17.45
2022-11-07T02:02:25.559Z,17.98
2022-11-07T02:02:51.225Z,18.35
2022-11-07T02:03:17.680Z,17.70
2022-11-07T02:03:39.909Z,17.27
2022-11-07T02:04:02.685Z,17.58
2022-11-07T02:04:27.226Z,16.67
2022-11-07T02:04:48.994Z,17.52
2022-11-07T02:05:12.631Z,19.08
2022-11-07T02:05:46.637Z,17.77
2022-11-07T02:06:14.864Z,18.48
2022-11-07T02:06:42.120Z,17.17
2022-11-07T02:07:13.202Z,18.08
2022-11-07T02:07:35.634Z,17.10
2022-11-07T02:07:58.990Z,17.73
2022-11-07T02:08:23.021Z,16.90
2022-11-07T02:08:46.767Z,16.83
2022-11-07T02:09:09.159Z,17.70
2022-11-07T02:09:31.680Z,17.63
2022-11-07T02:09:54.509Z,17.48
2022-11-07T02:10:16.896Z,17.73
2022-11-07T02:10:40.758Z,17.25
2022-11-07T02:11:03.663Z,18.63
2022-11-07T02:11:25.907Z,17.95
2022-11-07T02:11:48.097Z,18.40
2022-11-07T02:12:11.518Z,18.30
2022-11-07T02:12:33.521Z,17.98
2022-11-07T02:12:59.137Z,18.25
2022-11-07T02:13:27.157Z,17.85
2022-11-07T02:13:49.375Z,18.67
2022-11-07T02:14:18.107Z,18.63
2022-11-07T02:14:42.396Z,17.40
2022-11-07T02:15:05.205Z,17.42
2022-11-07T02:15:27.631Z,18.27
2022-11-07T02:15:49.605Z,18.27
2022-11-07T02:16:11.445Z,18.63
2022-11-07T02:16:36.046Z,18.90
2022-11-07T02:17:01.597Z,18.05
2022-11-07T02:17:23.785Z,17.77
2022-11-07T02:17:45.828Z,18.05
2022-11-07T02:18:08.017Z,17.10
2022-11-07T02:18:30.800Z,16.88
2022-11-07T02:18:52.905Z,17.63
2022-11-07T02:19:27.216Z,18.42
2022-11-07T02:19:54.096Z,17.25
2022-11-07T02:20:16.224Z,18.15
2022-11-07T02:20:38.062Z,17.92
2022-11-07T02:21:25.992Z,17.50
2022-11-07T02:21:58.847Z,18.17
2022-11-07T02:22:32.394Z,18.45
2022-11-07T02:23:14.136Z,18.80
2022-11-07T02:24:04.448Z,18.15
2022-11-07T02:24:34.950Z,18.50
2022-11-07T02:24:59.877Z,18.58
2022-11-07T02:25:22.185Z,17.77
2022-11-07T02:25:44.203Z,18.17
2022-11-07T02:26:06.574Z,18.38
2022-11-07T02:26:29.242Z,18.65
2022-11-07T02:26:53.429Z,19.25
2022-11-07T02:27:18.390Z,18.85
2022-11-07T02:27:41.813Z,18.50
2022-11-07T02:28:08.410Z,19.15
2022-11-07T02:28:32.606Z,19.13
2022-11-07T02:28:56.164Z,18.35
2022-11-07T02:29:18.365Z,18.23
2022-11-07T02:29:42.052Z,17.48
2022-11-07T02:30:09.552Z,18.85
2022-11-07T02:30:34.548Z,19.05
2022-11-07T02:30:56.614Z,19.58
2022-11-07T02:31:18.467Z,19.30
2022-11-07T02:31:40.352Z,19.25
2022-11-07T02:32:08.549Z,18.80
2022-11-07T02:32:30.705Z,18.08
2022-11-07T02:32:53.716Z,19.15
2022-11-07T02:33:19.611Z,18.77
2022-11-07T02:33:41.974Z,19.25
2022-11-07T02:34:04.028Z,18.92
2022-11-07T02:34:26.159Z,18.48
2022-11-07T02:34:59.009Z,18.02
2022-11-07T02:35:33.171Z,18.63
2022-11-07T02:35:55.421Z,19.67
2022-11-07T02:36:21.338Z,18.70
2022-11-07T02:36:43.097Z,18.92
2022-11-07T02:37:17.066Z,19.08
2022-11-07T02:37:39.788Z,18.92
2022-11-07T02:38:03.488Z,19.52
2022-11-07T02:38:31.065Z,19.77
2022-11-07T02:38:58.642Z,19.85
2022-11-07T02:39:20.713Z,19.75
2022-11-07T02:39:42.563Z,19.50
2022-11-07T02:40:10.092Z,19.58
2022-11-07T02:40:32.510Z,20.02
2022-11-07T02:41:16.695Z,19.15
2022-11-07T02:41:38.539Z,20.13
2022-11-07T02:42:01.843Z,19.50
2022-11-07T02:42:24.610Z,18.50
2022-11-07T02:42:47.785Z,18.38
2022-11-07T02:43:12.057Z,18.77
2022-11-07T02:43:37.096Z,18.90
2022-11-07T02:44:03.007Z,18.95
2022-11-07T02:44:25.444Z,18.70
2022-11-07T02:44:48.547Z,19.38
2022-11-07T02:45:12.439Z,20.95
2022-11-07T02:45:37.339Z,20.15
2022-11-07T02:46:02.064Z,20.00
2022-11-07T02:46:25.451Z,19.30
2022-11-07T02:46:47.688Z,19.67
2022-11-07T02:47:10.038Z,18.92
2022-11-07T02:47:32.204Z,19.15
2022-11-07T02:47:54.375Z,19.77
2022-11-07T02:48:16.813Z,19.70
2022-11-07T02:48:44.910Z,19.35
2022-11-07T02:49:06.758Z,19.80
2022-11-07T02:49:28.630Z,19.90
2022-11-07T02:49:50.388Z,19.92
2022-11-07T02:50:14.403Z,19.33
2022-11-07T02:50:36.170Z,20.02
2022-11-07T02:50:58.394Z,19.30
2022-11-07T02:51:20.177Z,19.02
2022-11-07T02:51:42.337Z,18.58
2022-11-07T02:52:04.541Z,19.20
2022-11-07T02:52:26.289Z,18.55
2022-11-07T02:52:48.075Z,19.33
2022-11-07T02:53:10.279Z,19.20
2022-11-07T02:53:32.153Z,19.52
2022-11-07T02:53:54.278Z,19.20
2022-11-07T02:54:16.811Z,19.73
2022-11-07T02:54:38.542Z,19.90
2022-11-07T02:55:00.656Z,19.90
2022-11-07T02:55:23.008Z,20.13
2022-11-07T02:55:44.769Z,20.15
2022-11-07T02:56:07.494Z,19.70
2022-11-07T02:56:29.362Z,19.05
2022-11-07T02:56:51.119Z,19.33
2022-11-07T02:57:12.888Z,19.25
2022-11-07T02:57:35.078Z,20.13
2022-11-07T02:57:57.272Z,19.33
2022-11-07T02:58:19.302Z,19.17
2022-11-07T02:58:41.485Z,19.65
2022-11-07T02:59:03.665Z,20.00
2022-11-07T02:59:27.203Z,21.05
2022-11-07T02:59:49.342Z,19.42
2022-11-07T03:00:13.724Z,19.90
2022-11-07T03:00:35.595Z,19.90
2022-11-07T03:01:07.157Z,20.60
2022-11-07T03:01:29.292Z,19.98
2022-11-07T03:01:51.282Z,19.02
2022-11-07T03:02:13.383Z,19.27
2022-11-07T03:02:35.493Z,20.15
2022-11-07T03:02:57.494Z,19.83
2022-11-07T03:03:19.759Z,19.67
2022-11-07T03:03:43.230Z,20.95
2022-11-07T03:04:05.727Z,19.73
2022-11-07T03:04:28.216Z,19.58
2022-11-07T03:04:50.273Z,20.40
2022-11-07T03:05:12.352Z,20.30
2022-11-07T03:05:34.241Z,20.70
2022-11-07T03:05:56.919Z,18.85
2022-11-07T03:06:24.603Z,19.55
2022-11-07T03:06:46.399Z,20.23
2022-11-07T03:07:08.119Z,20.42
2022-11-07T03:07:29.875Z,19.92
2022-11-07T03:07:51.652Z,19.80
2022-11-07T03:08:13.379Z,20.73
2022-11-07T03:08:35.180Z,20.98
2022-11-07T03:08:56.996Z,20.13
2022-11-07T03:09:19.042Z,20.60
2022-11-07T03:09:40.799Z,19.90
2022-11-07T03:10:02.951Z,19.25
2022-11-07T03:10:24.706Z,19.85
2022-11-07T03:10:46.429Z,19.15
2022-11-07T03:11:08.364Z,19.20
2022-11-07T03:11:30.237Z,19.63
2022-11-07T03:11:53.898Z,19.20
2022-11-07T03:12:15.647Z,19.38
2022-11-07T03:12:37.734Z,20.23
2022-11-07T03:12:59.988Z,19.60
2022-11-07T03:13:22.098Z,19.60
2022-11-07T03:13:43.849Z,20.02
2022-11-07T03:14:05.628Z,19.85
2022-11-07T03:14:27.436Z,19.65
2022-11-07T03:14:49.308Z,20.20
2022-11-07T03:15:13.041Z,20.45
2022-11-07T03:15:34.791Z,19.60
2022-11-07T03:15:56.563Z,19.23
2022-11-07T03:16:19.989Z,19.27
2022-11-07T03:16:41.746Z,19.98
2022-11-07T03:17:07.566Z,19.77
2022-11-07T03:17:29.311Z,19.65
2022-11-07T03:17:51.460Z,21.08
2022-11-07T03:18:13.668Z,20.60
2022-11-07T03:18:36.267Z,20.05
2022-11-07T03:18:58.473Z,19.95
2022-11-07T03:19:20.381Z,18.38
2022-11-07T03:19:42.251Z,19.17
2022-11-07T03:20:04.746Z,19.27
2022-11-07T03:20:26.597Z,18.95
2022-11-07T03:20:48.514Z,18.80
2022-11-07T03:21:10.367Z,19.17
2022-11-07T03:21:32.525Z,19.35
2022-11-07T03:21:54.675Z,19.02
2022-11-07T03:22:16.451Z,19.20
2022-11-07T03:22:38.874Z,19.70
2022-11-07T03:23:00.647Z,19.42
2022-11-07T03:23:22.397Z,19.08
2022-11-07T03:23:44.169Z,19.15
2022-11-07T03:24:06.487Z,19.42
2022-11-07T03:24:28.533Z,20.13
2022-11-07T03:24:50.555Z,19.55
2022-11-07T03:25:12.335Z,20.05
2022-11-07T03:25:34.071Z,19.80
2022-11-07T03:25:55.896Z,20.77
2022-11-07T03:26:17.703Z,19.92
2022-11-07T03:26:39.573Z,20.17
2022-11-07T03:27:02.472Z,19.48
2022-11-07T03:27:24.313Z,19.35
2022-11-07T03:27:47.624Z,20.02
2022-11-07T03:28:10.070Z,19.87
2022-11-07T03:28:32.304Z,20.45
2022-11-07T03:28:54.074Z,19.38
2022-11-07T03:29:16.226Z,19.83
2022-11-07T03:29:38.079Z,20.15
2022-11-07T03:29:59.770Z,20.38
2022-11-07T03:30:21.659Z,19.88
2022-11-07T03:30:43.432Z,20.20
2022-11-07T03:31:05.453Z,20.45
2022-11-07T03:31:27.917Z,20.13
2022-11-07T03:31:50.517Z,19.83
2022-11-07T03:32:12.859Z,19.75
2022-11-07T03:32:35.015Z,20.13
2022-11-07T03:32:58.593Z,20.08
2022-11-07T03:33:20.354Z,19.67
2022-11-07T03:33:43.477Z,19.83
2022-11-07T03:34:05.193Z,19.98
2022-11-07T03:34:26.947Z,20.67
2022-11-07T03:34:48.750Z,20.77
2022-11-07T03:35:11.234Z,20.40
2022-11-07T03:35:33.037Z,19.02
2022-11-07T03:35:54.909Z,19.13
2022-11-07T03:36:16.952Z,18.95
2022-11-07T03:36:38.676Z,19.38
2022-11-07T03:37:00.820Z,19.67
2022-11-07T03:37:22.565Z,19.15
2022-11-07T03:37:48.328Z,20.00
2022-11-07T03:38:11.303Z,20.40
2022-11-07T03:38:33.572Z,20.85
2022-11-07T03:38:55.636Z,19.60
2022-11-07T03:39:20.619Z,20.45
2022-11-07T03:39:46.930Z,20.58
2022-11-07T03:40:09.601Z,20.23
2022-11-07T03:40:31.581Z,20.95
2022-11-07T03:40:53.403Z,21.13
2022-11-07T03:41:17.340Z,20.13
2022-11-07T03:41:39.090Z,19.63
2022-11-07T03:42:00.870Z,20.58
2022-11-07T03:42:23.010Z,21.17
2022-11-07T03:42:45.834Z,20.15
2022-11-07T03:43:07.585Z,20.50
2022-11-07T03:43:29.403Z,20.52
2022-11-07T03:43:51.229Z,21.17
2022-11-07T03:44:12.990Z,21.33
2022-11-07T03:44:34.895Z,20.15
2022-11-07T03:44:57.731Z,19.88
2022-11-07T03:45:19.940Z,20.92
2022-11-07T03:45:41.992Z,19.42
2022-11-07T03:46:04.122Z,20.38
2022-11-07T03:46:25.871Z,21.38
2022-11-07T03:46:47.702Z,20.35
2022-11-07T03:47:09.855Z,20.73
2022-11-07T03:47:35.348Z,19.92
2022-11-07T03:47:57.115Z,20.70
2022-11-07T03:48:18.942Z,20.55
2022-11-07T03:48:40.808Z,21.60
2022-11-07T03:49:02.932Z,20.73
2022-11-07T03:49:25.056Z,20.77
2022-11-07T03:49:46.871Z,20.33
2022-11-07T03:50:11.099Z,19.73
2022-11-07T03:50:32.978Z,20.20
2022-11-07T03:50:54.861Z,20.30
2022-11-07T03:51:16.687Z,20.00
2022-11-07T03:51:38.496Z,20.77
2022-11-07T03:52:00.345Z,20.35
2022-11-07T03:52:22.123Z,20.92
2022-11-07T03:52:44.561Z,20.80
2022-11-07T03:53:06.300Z,20.70
2022-11-07T03:53:28.423Z,20.20
2022-11-07T03:53:50.660Z,20.48
2022-11-07T03:54:12.852Z,20.05
2022-11-07T03:54:34.637Z,20.25
2022-11-07T03:54:56.852Z,21.20
2022-11-07T03:55:18.637Z,20.48
2022-11-07T03:55:41.100Z,20.52
2022-11-07T03:56:10.344Z,20.52
2022-11-07T03:56:33.027Z,19.27
2022-11-07T03:56:54.777Z,18.73
2022-11-07T03:57:16.560Z,19.08
2022-11-07T03:57:38.560Z,19.98
2022-11-07T03:58:00.677Z,19.50
2022-11-07T03:58:23.044Z,19.40
2022-11-07T03:58:44.765Z,20.00
2022-11-07T03:59:06.677Z,20.05
2022-11-07T03:59:28.463Z,20.52
2022-11-07T03:59:50.596Z,21.55
2022-11-07T04:00:13.936Z,19.83
2022-11-07T04:00:36.172Z,19.77
2022-11-07T04:00:58.354Z,20.13
2022-11-07T04:01:20.181Z,20.55
2022-11-07T04:01:42.196Z,20.55
2022-11-07T04:02:04.155Z,20.85
2022-11-07T04:02:26.740Z,20.40
2022-11-07T04:02:49.083Z,19.83
2022-11-07T04:03:11.364Z,20.05
2022-11-07T04:03:33.719Z,20.05
2022-11-07T04:03:56.441Z,19.92
2022-11-07T04:04:18.343Z,21.30
2022-11-07T04:04:40.596Z,20.85
2022-11-07T04:05:02.563Z,20.40
2022-11-07T04:05:24.442Z,19.33
2022-11-07T04:05:46.164Z,20.20
2022-11-07T04:06:08.249Z,20.88
2022-11-07T04:06:30.012Z,20.88
2022-11-07T04:06:51.801Z,20.65
2022-11-07T04:07:13.696Z,19.63
2022-11-07T04:07:35.848Z,20.30
2022-11-07T04:07:57.949Z,19.38
2022-11-07T04:08:19.761Z,19.88
2022-11-07T04:08:41.683Z,18.30
2022-11-07T04:09:03.900Z,19.00
2022-11-07T04:09:26.012Z,19.33
2022-11-07T04:09:47.768Z,19.90
2022-11-07T04:10:09.562Z,20.58
2022-11-07T04:10:31.312Z,21.10
2022-11-07T04:10:53.567Z,19.52
2022-11-07T04:11:35.259Z,19.05
2022-11-07T04:12:16.548Z,19.92
2022-11-07T04:12:56.725Z,19.33
2022-11-07T04:13:37.055Z,18.92
2022-11-07T04:14:17.434Z,20.05
2022-11-07T04:14:57.765Z,19.42
2022-11-07T04:15:38.541Z,20.23
2022-11-07T04:16:19.387Z,20.33
2022-11-07T04:17:00.965Z,20.35
2022-11-07T04:17:23.043Z,19.83
2022-11-07T04:17:44.787Z,20.65
2022-11-07T04:18:06.661Z,19.67
2022-11-07T04:18:28.511Z,19.52
2022-11-07T04:18:50.355Z,19.70
2022-11-07T04:19:12.491Z,19.92
2022-11-07T04:19:34.210Z,21.23
2022-11-07T04:19:57.213Z,20.23
2022-11-07T04:20:19.623Z,19.27
2022-11-07T04:20:41.372Z,20.38
2022-11-07T04:21:03.154Z,18.83
2022-11-07T04:21:25.110Z,19.90
2022-11-07T04:21:46.837Z,20.80
2022-11-07T04:22:08.600Z,20.05
2022-11-07T04:22:30.349Z,19.67
2022-11-07T04:22:52.226Z,19.85
2022-11-07T04:23:14.261Z,19.95
2022-11-07T04:23:36.445Z,18.92
2022-11-07T04:23:58.513Z,20.25
2022-11-07T04:24:20.329Z,19.33
2022-11-07T04:24:46.007Z,19.00
2022-11-07T04:25:08.716Z,19.50
2022-11-07T04:25:49.783Z,19.75
2022-11-07T04:26:30.258Z,19.88
2022-11-07T04:27:24.137Z,20.55
2022-11-07T04:27:47.036Z,20.92
2022-11-07T04:28:09.386Z,19.55
2022-11-07T04:28:31.152Z,20.38
2022-11-07T04:28:52.887Z,19.92
2022-11-07T04:29:14.620Z,20.00
2022-11-07T04:29:36.750Z,19.67
2022-11-07T04:29:58.951Z,20.55
2022-11-07T04:30:23.622Z,19.92
2022-11-07T04:30:45.383Z,20.30
2022-11-07T04:31:07.244Z,20.60
2022-11-07T04:31:29.074Z,19.73
2022-11-07T04:31:50.861Z,20.42
2022-11-07T04:32:13.058Z,20.48
2022-11-07T04:32:35.222Z,19.65
2022-11-07T04:32:58.512Z,19.58
2022-11-07T04:33:20.825Z,19.20
2022-11-07T04:33:42.620Z,19.13
2022-11-07T04:34:04.659Z,19.50
2022-11-07T04:34:26.383Z,20.55
2022-11-07T04:34:48.506Z,20.15
2022-11-07T04:35:10.659Z,20.55
2022-11-07T04:35:33.459Z,21.20
2022-11-07T04:35:55.273Z,20.88
2022-11-07T04:36:19.505Z,20.10
2022-11-07T04:36:42.131Z,19.92
2022-11-07T04:37:03.875Z,20.05
2022-11-07T04:37:26.002Z,20.70
2022-11-07T04:37:48.589Z,20.77
2022-11-07T04:38:10.393Z,21.08
2022-11-07T04:38:32.215Z,21.63
2022-11-07T04:38:55.369Z,20.80
2022-11-07T04:39:17.493Z,21.08
2022-11-07T04:39:39.236Z,20.92
2022-11-07T04:40:01.322Z,20.60
2022-11-07T04:40:23.209Z,20.52
2022-11-07T04:40:45.050Z,21.40
2022-11-07T04:41:06.809Z,21.85
2022-11-07T04:41:28.626Z,21.65
2022-11-07T04:41:50.629Z,20.48
2022-11-07T04:42:12.513Z,20.85
2022-11-07T04:42:34.313Z,20.65
2022-11-07T04:42:56.140Z,21.17
2022-11-07T04:43:18.033Z,21.35
2022-11-07T04:43:39.910Z,20.85
2022-11-07T04:44:01.637Z,19.05
2022-11-07T04:44:23.378Z,20.15
2022-11-07T04:44:45.128Z,21.20
2022-11-07T04:45:08.084Z,20.92
2022-11-07T04:45:29.895Z,20.90
2022-11-07T04:45:52.009Z,21.27
2022-11-07T04:46:14.416Z,21.08
2022-11-07T04:46:36.716Z,21.85
2022-11-07T04:46:58.581Z,21.35
2022-11-07T04:47:20.331Z,20.33
2022-11-07T04:47:42.611Z,20.95
2022-11-07T04:48:05.167Z,21.90
2022-11-07T04:48:26.928Z,20.65
2022-11-07T04:48:48.666Z,21.30
2022-11-07T04:49:10.493Z,20.25
2022-11-07T04:49:32.217Z,20.38
2022-11-07T04:49:54.275Z,21.85
2022-11-07T04:50:18.652Z,20.83
2022-11-07T04:50:41.112Z,21.10
2022-11-07T04:51:02.939Z,21.60
2022-11-07T04:51:24.823Z,20.90
2022-11-07T04:51:46.600Z,20.85
2022-11-07T04:52:10.301Z,21.42
2022-11-07T04:52:32.359Z,20.75
2022-11-07T04:52:54.194Z,21.23
2022-11-07T04:53:17.945Z,20.33
2022-11-07T04:53:39.878Z,19.90
2022-11-07T04:54:01.647Z,21.42
2022-11-07T04:54:23.452Z,20.45
2022-11-07T04:54:45.235Z,21.30
2022-11-07T04:55:09.246Z,20.73
2022-11-07T04:55:31.018Z,20.80
2022-11-07T04:55:52.960Z,21.10
2022-11-07T04:56:15.222Z,21.52
2022-11-07T04:56:37.374Z,20.60
2022-11-07T04:56:59.182Z,21.08
2022-11-07T04:57:20.946Z,21.20
2022-11-07T04:57:42.750Z,21.55
2022-11-07T04:58:04.463Z,21.08
2022-11-07T04:58:26.271Z,20.70
2022-11-07T04:58:48.031Z,20.23
2022-11-07T04:59:09.790Z,21.17
2022-11-07T04:59:31.572Z,20.23
2022-11-07T04:59:53.363Z,21.30
2022-11-07T05:00:16.535Z,20.95
2022-11-07T05:00:38.477Z,21.33
2022-11-07T05:01:01.373Z,21.70